Time;durP1;ratioP1;P1;durP2;ratioP2;P2;SDS_P1;SDS_P2;PMS_P1;PMS_P2;Temp;Humidity;BMP_temperature;BMP_pressure;BME280_temperature;BME280_humidity;BME280_pressure;Samples;Min_cycle;Max_cycle;Signal;HPM_P1;HPM_P2
2021/08/09 04:02:09;;;;;;;2.97;2.77;;;14.20;99.90;;;;;;5189624;23;20660;-71
2021/08/09 04:04:35;;;;;;;4.13;2.75;;;14.20;99.90;;;;;;4933389;29;20461;-71
2021/08/09 04:07:02;;;;;;;3.30;3.00;;;14.20;99.90;;;;;;4915697;29;20336;-71
2021/08/09 04:09:29;;;;;;;2.50;2.30;;;14.20;99.90;;;;;;4916448;29;20458;-72
2021/08/09 04:11:56;;;;;;;4.83;2.80;;;14.20;99.90;;;;;;4918094;29;21002;-72
2021/08/09 04:14:22;;;;;;;2.50;2.30;;;14.10;99.90;;;;;;4901498;29;20471;-72
2021/08/09 04:16:49;;;;;;;2.73;2.60;;;14.20;99.90;;;;;;4912202;29;20617;-72
2021/08/09 04:19:17;;;;;;;3.30;3.20;;;14.10;99.90;;;;;;4902510;29;20839;-72
2021/08/09 04:21:43;;;;;;;4.40;3.30;;;14.10;99.90;;;;;;4910502;29;21022;-72
2021/08/09 04:24:10;;;;;;;2.33;2.23;;;14.20;99.90;;;;;;4899740;29;20555;-72
2021/08/09 04:26:37;;;;;;;2.90;2.70;;;14.10;99.90;;;;;;4909268;29;20462;-72
2021/08/09 04:29:03;;;;;;;3.13;2.77;;;14.10;99.90;;;;;;4901574;29;20550;-72
2021/08/09 04:31:31;;;;;;;3.33;3.13;;;14.10;99.90;;;;;;4907997;29;20986;-72
2021/08/09 04:33:57;;;;;;;2.92;2.83;;;14.10;99.90;;;;;;4902090;29;20830;-72
2021/08/09 04:36:25;;;;;;;2.70;2.60;;;14.20;99.90;;;;;;4906427;29;20217;-72
2021/08/09 04:38:52;;;;;;;6.47;2.90;;;14.20;99.90;;;;;;4903740;29;20463;-72
2021/08/09 04:41:19;;;;;;;2.70;2.60;;;14.20;99.90;;;;;;4905532;29;20493;-72
2021/08/09 04:43:45;;;;;;;2.50;2.40;;;14.20;99.90;;;;;;4904921;29;20896;-73
2021/08/09 04:46:12;;;;;;;2.37;2.27;;;14.40;99.90;;;;;;4903802;29;20986;-73
2021/08/09 04:48:38;;;;;;;2.90;2.80;;;14.90;99.90;;;;;;4906719;29;20519;-73
2021/08/09 04:51:05;;;;;;;2.60;2.40;;;15.50;99.90;;;;;;4903005;29;20482;-73
2021/08/09 04:53:33;;;;;;;2.67;2.57;;;16.00;99.90;;;;;;4915431;29;20518;-72
2021/08/09 04:56:00;;;;;;;2.37;2.27;;;16.50;99.90;;;;;;4909682;29;20480;-73
2021/08/09 04:58:26;;;;;;;2.20;2.03;;;17.00;99.90;;;;;;4900077;29;20478;-73
2021/08/09 05:00:53;;;;;;;1.90;1.90;;;17.40;99.90;;;;;;4900849;29;20494;-72
2021/08/09 05:03:20;;;;;;;1.70;1.60;;;17.70;99.90;;;;;;4899619;29;20550;-73
2021/08/09 05:05:47;;;;;;;2.60;1.90;;;18.00;99.90;;;;;;4900157;29;20800;-72
2021/08/09 05:08:14;;;;;;;1.63;1.57;;;18.30;99.90;;;;;;4907466;29;20514;-73
2021/08/09 05:10:42;;;;;;;3.53;2.10;;;18.70;99.90;;;;;;4915096;29;20491;-72
2021/08/09 05:13:09;;;;;;;2.23;1.87;;;18.90;99.90;;;;;;4917657;29;20808;-71
2021/08/09 05:15:38;;;;;;;1.93;1.90;;;18.90;99.90;;;;;;4918199;29;20466;-71
2021/08/09 05:18:05;;;;;;;2.07;1.97;;;18.50;99.90;;;;;;4913406;29;20566;-71
2021/08/09 05:20:31;;;;;;;1.93;1.83;;;18.10;99.90;;;;;;4902983;29;21157;-71
2021/08/09 05:22:58;;;;;;;2.40;2.30;;;17.80;99.90;;;;;;4914811;29;20994;-71
2021/08/09 05:25:25;;;;;;;4.80;2.20;;;17.60;99.90;;;;;;4915866;29;21326;-71
2021/08/09 05:27:54;;;;;;;2.60;2.40;;;17.30;99.90;;;;;;4913910;29;20483;-71
2021/08/09 05:30:20;;;;;;;1.83;1.73;;;17.10;99.90;;;;;;4909693;29;20456;-72
2021/08/09 05:32:47;;;;;;;2.10;2.10;;;16.90;99.90;;;;;;4899152;29;20539;-72
2021/08/09 05:35:14;;;;;;;2.03;2.00;;;16.80;99.90;;;;;;4906634;29;20466;-72
2021/08/09 05:37:40;;;;;;;4.07;2.00;;;16.80;99.90;;;;;;4899790;29;20467;-72
2021/08/09 05:40:08;;;;;;;2.00;2.00;;;16.70;99.90;;;;;;4902344;29;20479;-72
2021/08/09 05:42:35;;;;;;;3.40;2.00;;;16.60;99.90;;;;;;4916418;29;20470;-72
2021/08/09 05:45:04;;;;;;;2.53;1.80;;;16.60;99.90;;;;;;4913521;29;20460;-72
2021/08/09 05:47:30;;;;;;;3.90;2.07;;;16.60;99.90;;;;;;4915051;29;20469;-72
2021/08/09 05:49:57;;;;;;;2.20;2.20;;;16.60;99.90;;;;;;4914255;29;20493;-72
2021/08/09 05:52:25;;;;;;;2.87;1.93;;;16.60;99.90;;;;;;4899075;29;20503;-71
2021/08/09 05:54:53;;;;;;;3.03;2.33;;;16.60;99.90;;;;;;4900711;29;20472;-69
2021/08/09 05:57:20;;;;;;;2.10;1.90;;;16.60;99.90;;;;;;4901751;29;20471;-69
2021/08/09 05:59:47;;;;;;;2.70;2.10;;;16.70;99.90;;;;;;4910237;29;20970;-70
2021/08/09 06:02:15;;;;;;;1.87;1.87;;;16.70;99.90;;;;;;4897101;29;20507;-70
2021/08/09 06:04:42;;;;;;;2.10;2.10;;;16.80;99.90;;;;;;4897932;29;20491;-70
2021/08/09 06:07:12;;;;;;;1.93;1.83;;;16.90;99.90;;;;;;4896848;29;20475;-71
2021/08/09 06:09:39;;;;;;;1.70;1.70;;;17.30;99.90;;;;;;4898254;29;20578;-71
2021/08/09 06:12:06;;;;;;;1.87;1.77;;;18.10;99.90;;;;;;4907520;29;20498;-71
2021/08/09 06:14:33;;;;;;;2.33;2.23;;;19.10;99.90;;;;;;4912016;29;20986;-73
2021/08/09 06:17:00;;;;;;;2.97;2.23;;;19.50;99.90;;;;;;4901183;29;20535;-72
2021/08/09 06:19:28;;;;;;;1.73;1.73;;;19.90;99.90;;;;;;4910179;29;20541;-73
2021/08/09 06:21:54;;;;;;;2.00;1.67;;;20.30;99.90;;;;;;4901271;29;20480;-73
2021/08/09 06:24:22;;;;;;;2.40;1.60;;;20.90;99.90;;;;;;4916425;29;20561;-73
2021/08/09 06:26:49;;;;;;;1.50;1.50;;;21.40;99.90;;;;;;4905436;29;20474;-73
2021/08/09 06:29:15;;;;;;;1.63;1.53;;;21.90;99.90;;;;;;4899444;29;20468;-73
2021/08/09 06:31:42;;;;;;;1.73;1.60;;;22.20;99.90;;;;;;4908238;29;20488;-73
2021/08/09 06:34:09;;;;;;;1.60;1.50;;;22.60;99.90;;;;;;4898196;29;20506;-73
2021/08/09 06:36:37;;;;;;;1.60;1.50;;;22.40;99.90;;;;;;4899038;29;20478;-73
2021/08/09 06:39:04;;;;;;;1.70;1.43;;;21.90;99.90;;;;;;4905630;29;20956;-73
2021/08/09 06:41:32;;;;;;;4.33;1.77;;;21.70;99.90;;;;;;4916764;29;20486;-73
2021/08/09 06:43:58;;;;;;;1.83;1.83;;;21.50;99.90;;;;;;4916970;29;20605;-73
2021/08/09 06:46:25;;;;;;;2.20;1.80;;;21.10;99.90;;;;;;4906894;29;20479;-73
2021/08/09 06:48:52;;;;;;;2.73;2.20;;;21.10;99.90;;;;;;4913651;29;20470;-72
2021/08/09 06:51:18;;;;;;;4.23;2.03;;;20.90;99.90;;;;;;4905354;29;20494;-73
2021/08/09 06:53:46;;;;;;;1.70;1.70;;;20.70;99.90;;;;;;4898009;29;20545;-72
2021/08/09 06:56:15;;;;;;;2.13;2.10;;;20.40;99.90;;;;;;4902729;29;20957;-72
2021/08/09 06:58:42;;;;;;;3.33;1.80;;;20.20;99.90;;;;;;4897867;29;20474;-72
2021/08/09 07:01:08;;;;;;;2.00;2.00;;;19.80;99.90;;;;;;4903721;29;20970;-72
2021/08/09 07:03:35;;;;;;;1.60;1.60;;;19.80;99.90;;;;;;4897015;29;20499;-72
2021/08/09 07:06:02;;;;;;;2.20;2.10;;;19.70;99.90;;;;;;4908950;29;20485;-72
2021/08/09 07:08:28;;;;;;;2.53;1.90;;;19.60;99.90;;;;;;4916314;29;20485;-72
2021/08/09 07:10:56;;;;;;;2.10;2.00;;;19.60;99.90;;;;;;4905108;29;20499;-72
2021/08/09 07:13:23;;;;;;;2.43;2.23;;;19.80;99.90;;;;;;4913261;29;20785;-71
2021/08/09 07:15:50;;;;;;;1.90;1.80;;;19.80;99.90;;;;;;4914210;29;20470;-71
2021/08/09 07:18:16;;;;;;;1.93;1.67;;;19.90;99.90;;;;;;4899017;29;20479;-71
2021/08/09 07:20:43;;;;;;;2.03;1.90;;;19.90;99.90;;;;;;4909550;29;20558;-71
2021/08/09 07:23:09;;;;;;;1.80;1.80;;;20.00;99.90;;;;;;4913192;29;20467;-71
2021/08/09 07:25:36;;;;;;;2.30;2.20;;;19.90;99.90;;;;;;4916437;29;20467;-71
2021/08/09 07:28:04;;;;;;;2.50;2.40;;;19.70;99.90;;;;;;4906156;29;20467;-71
2021/08/09 07:30:31;;;;;;;2.73;2.60;;;19.60;99.90;;;;;;4901336;29;20483;-71
2021/08/09 07:32:58;;;;;;;1.90;1.80;;;19.50;99.90;;;;;;4910053;29;20979;-71
2021/08/09 07:35:25;;;;;;;2.90;2.17;;;19.60;99.90;;;;;;4915071;29;20475;-70
2021/08/09 07:37:52;;;;;;;2.03;2.00;;;19.90;99.90;;;;;;4910383;29;20473;-70
2021/08/09 07:40:19;;;;;;;2.30;2.10;;;20.00;99.90;;;;;;4903963;29;20555;-69
2021/08/09 07:42:46;;;;;;;2.67;2.00;;;19.90;99.90;;;;;;4914011;29;20470;-70
2021/08/09 07:45:14;;;;;;;2.73;2.63;;;19.90;99.90;;;;;;4904691;29;20563;-70
2021/08/09 07:47:40;;;;;;;3.23;2.23;;;20.00;99.90;;;;;;4899521;29;20475;-70
2021/08/09 07:50:08;;;;;;;1.90;1.90;;;20.00;99.90;;;;;;4898942;29;20475;-71
2021/08/09 07:52:34;;;;;;;1.80;1.70;;;20.10;99.90;;;;;;4905472;29;20578;-70
2021/08/09 07:55:02;;;;;;;2.20;2.13;;;19.90;99.90;;;;;;4898055;29;20506;-70
2021/08/09 07:57:28;;;;;;;2.77;2.67;;;19.80;99.90;;;;;;4896898;29;20526;-70
2021/08/09 07:59:55;;;;;;;1.73;1.73;;;19.60;99.90;;;;;;4897518;29;20467;-70
2021/08/09 08:02:23;;;;;;;2.20;2.10;;;19.50;99.90;;;;;;4908380;29;20907;-70
2021/08/09 08:04:50;;;;;;;2.43;2.33;;;19.60;99.90;;;;;;4905947;29;20525;-71
2021/08/09 08:07:16;;;;;;;4.73;2.33;;;19.60;99.90;;;;;;4908247;29;20570;-70
2021/08/09 08:09:43;;;;;;;2.33;2.23;;;19.80;99.90;;;;;;4910412;29;20463;-70
2021/08/09 08:12:10;;;;;;;3.37;1.87;;;20.00;99.90;;;;;;4906983;29;20569;-70
2021/08/09 08:14:36;;;;;;;1.83;1.73;;;20.00;99.90;;;;;;4911784;29;20511;-71
2021/08/09 08:17:03;;;;;;;2.53;2.00;;;20.00;99.90;;;;;;4905658;29;20990;-70
2021/08/09 08:19:31;;;;;;;2.33;1.83;;;20.00;99.90;;;;;;4913472;29;20841;-70
2021/08/09 08:21:58;;;;;;;2.47;2.37;;;20.20;99.90;;;;;;4908572;29;20491;-71
2021/08/09 08:24:27;;;;;;;2.30;2.17;;;20.30;99.90;;;;;;4908402;29;21002;-72
2021/08/09 08:26:54;;;;;;;2.13;2.13;;;20.40;99.90;;;;;;4898674;29;20483;-70
2021/08/09 08:29:21;;;;;;;2.23;2.23;;;20.50;99.90;;;;;;4905882;29;20533;-72
2021/08/09 08:31:48;;;;;;;2.30;2.10;;;20.60;99.90;;;;;;4906541;29;20570;-71
2021/08/09 08:34:14;;;;;;;1.90;1.67;;;20.60;99.90;;;;;;4913778;29;20515;-72
2021/08/09 08:36:42;;;;;;;2.03;1.93;;;20.60;99.90;;;;;;4900278;29;20534;-71
2021/08/09 08:39:10;;;;;;;2.40;2.30;;;20.60;99.90;;;;;;4907353;29;20490;-71
2021/08/09 08:41:41;;;;;;;2.57;2.03;;;20.60;99.90;;;;;;4905150;29;20482;-72
2021/08/09 08:44:08;;;;;;;1.90;1.80;;;20.60;99.90;;;;;;4902935;29;20487;-72
2021/08/09 08:46:37;;;;;;;1.70;1.60;;;20.60;99.90;;;;;;4900492;29;20471;-71
2021/08/09 08:49:05;;;;;;;2.20;1.80;;;20.70;99.90;;;;;;4913507;29;20584;-72
2021/08/09 08:51:32;;;;;;;4.07;1.57;;;20.70;99.90;;;;;;4899853;29;20523;-72
2021/08/09 08:54:00;;;;;;;1.90;1.90;;;20.50;99.90;;;;;;4902301;29;20459;-72
2021/08/09 08:56:28;;;;;;;1.80;1.70;;;20.60;99.90;;;;;;4900169;29;20515;-71
2021/08/09 08:58:54;;;;;;;1.60;1.50;;;20.70;99.90;;;;;;4912575;29;20892;-71
2021/08/09 09:01:35;;;;;;;1.57;1.47;;;20.60;99.90;;;;;;4901704;29;20597;-71
2021/08/09 09:04:20;;;;;;;1.63;1.53;;;20.50;99.90;;;;;;4914779;29;20522;-71
2021/08/09 09:06:46;;;;;;;1.57;1.57;;;20.40;99.90;;;;;;4899425;29;20936;-71
2021/08/09 09:09:22;;;;;;;1.80;1.70;;;20.50;99.90;;;;;;4916378;29;20466;-71
2021/08/09 09:11:49;;;;;;;1.83;1.80;;;20.60;99.90;;;;;;4918776;29;20497;-71
2021/08/09 09:14:24;;;;;;;1.20;1.20;;;20.70;99.90;;;;;;4907859;29;20546;-72
2021/08/09 09:16:51;;;;;;;1.70;1.60;;;20.70;99.90;;;;;;4907314;29;20507;-71
2021/08/09 09:19:33;;;;;;;1.53;1.40;;;20.70;99.90;;;;;;4902520;29;20459;-71
2021/08/09 09:22:01;;;;;;;1.70;1.60;;;20.80;99.90;;;;;;4918122;29;20577;-72
2021/08/09 09:24:29;;;;;;;3.00;1.60;;;20.80;99.90;;;;;;4903738;29;20519;-72
2021/08/09 09:26:57;;;;;;;1.50;1.37;;;20.90;99.90;;;;;;4915267;29;20467;-71
2021/08/09 09:29:25;;;;;;;1.90;1.80;;;20.90;99.90;;;;;;4903535;29;20497;-72
2021/08/09 09:31:54;;;;;;;2.80;2.40;;;21.00;99.90;;;;;;4910521;29;20494;-72
2021/08/09 09:34:23;;;;;;;1.70;1.20;;;21.10;99.90;;;;;;4906543;29;20463;-71
2021/08/09 09:36:55;;;;;;;2.13;1.67;;;21.10;99.90;;;;;;4904164;29;20907;-71
2021/08/09 09:39:34;;;;;;;1.73;1.60;;;21.20;99.90;;;;;;4904062;29;20487;-70
2021/08/09 09:42:02;;;;;;;1.40;1.40;;;21.30;99.90;;;;;;4901998;29;20483;-70
2021/08/09 09:44:30;;;;;;;1.10;1.10;;;21.60;99.90;;;;;;4901005;29;21122;-70
2021/08/09 09:47:27;;;;;;;1.17;1.17;;;21.70;99.90;;;;;;4907006;29;20472;-70
2021/08/09 09:49:56;;;;;;;1.03;1.03;;;21.60;99.90;;;;;;4902253;29;20494;-71
2021/08/09 09:52:44;;;;;;;2.43;2.00;;;21.60;99.90;;;;;;4906469;29;20945;-70
2021/08/09 09:55:14;;;;;;;1.50;1.50;;;21.70;99.90;;;;;;4904217;29;20461;-71
2021/08/09 09:57:42;;;;;;;1.63;1.27;;;21.60;99.90;;;;;;4916331;29;20992;-70
2021/08/09 10:00:12;;;;;;;1.40;1.30;;;21.50;99.90;;;;;;4912153;29;20470;-70
2021/08/09 10:02:39;;;;;;;1.43;1.43;;;21.60;99.90;;;;;;4898322;29;20842;-70
2021/08/09 10:05:06;;;;;;;1.30;1.30;;;21.70;99.90;;;;;;4913104;29;20495;-70
2021/08/09 10:07:35;;;;;;;0.80;0.80;;;21.80;99.90;;;;;;4906873;29;20641;-70
2021/08/09 10:10:03;;;;;;;1.90;1.80;;;21.80;99.90;;;;;;4905747;29;20467;-71
2021/08/09 10:12:33;;;;;;;2.37;1.30;;;21.70;99.90;;;;;;4909733;29;20497;-71
2021/08/09 10:15:01;;;;;;;1.43;1.30;;;21.60;99.90;;;;;;4913385;29;20455;-71
2021/08/09 10:17:31;;;;;;;1.90;1.80;;;21.70;99.90;;;;;;4903826;29;20571;-71
2021/08/09 10:20:00;;;;;;;3.47;1.83;;;21.70;99.90;;;;;;4904751;29;20524;-71
2021/08/09 10:22:27;;;;;;;3.43;1.90;;;21.80;99.90;;;;;;4914658;29;20466;-71
2021/08/09 10:24:55;;;;;;;1.90;1.83;;;21.90;99.90;;;;;;4914183;29;20486;-72
2021/08/09 10:27:56;;;;;;;1.20;1.20;;;21.80;99.90;;;;;;4917333;29;20466;-71
2021/08/09 10:30:24;;;;;;;4.43;1.97;;;21.80;99.90;;;;;;4896664;29;20963;-72
2021/08/09 10:32:53;;;;;;;2.20;1.30;;;21.80;99.90;;;;;;4897608;29;20483;-72
2021/08/09 10:35:59;;;;;;;1.80;1.70;;;22.00;99.90;;;;;;4897836;29;20900;-72
2021/08/09 10:38:27;;;;;;;1.50;1.40;;;22.00;99.90;;;;;;4898178;29;20550;-72
2021/08/09 10:41:29;;;;;;;1.80;1.70;;;21.90;99.90;;;;;;4897870;29;20578;-72
2021/08/09 10:44:25;;;;;;;1.73;1.60;;;21.90;99.90;;;;;;4897810;29;20469;-72
2021/08/09 10:46:53;;;;;;;2.20;1.53;;;21.70;99.90;;;;;;4913327;29;20498;-72
2021/08/09 10:49:50;;;;;;;1.40;1.30;;;21.60;99.90;;;;;;4915968;29;20470;-72
2021/08/09 10:52:36;;;;;;;2.83;1.60;;;21.60;99.90;;;;;;4839314;29;20534;-72
2021/08/09 10:55:39;;;;;;;1.60;1.50;;;21.60;99.90;;;;;;4907897;29;20470;-71
2021/08/09 10:58:06;;;;;;;3.50;1.17;;;21.70;99.90;;;;;;4907022;29;20841;-72
2021/08/09 11:00:55;;;;;;;2.47;1.67;;;21.70;99.90;;;;;;4916398;29;20638;-73
2021/08/09 11:03:22;;;;;;;1.30;1.27;;;21.80;99.90;;;;;;4915764;29;20478;-72
2021/08/09 11:05:49;;;;;;;1.83;1.23;;;21.80;99.90;;;;;;4915878;29;21001;-72
2021/08/09 11:08:32;;;;;;;1.90;1.47;;;21.90;99.90;;;;;;4915325;29;20483;-72
2021/08/09 11:11:07;;;;;;;2.03;1.40;;;21.90;99.90;;;;;;4910611;29;20635;-72
2021/08/09 11:14:11;;;;;;;2.50;1.40;;;21.90;99.90;;;;;;4914792;29;20477;-72
2021/08/09 11:16:40;;;;;;;1.30;1.30;;;22.10;99.90;;;;;;4897477;29;20534;-72
2021/08/09 11:19:06;;;;;;;1.60;1.50;;;22.10;99.90;;;;;;4897280;29;20483;-72
2021/08/09 11:21:33;;;;;;;1.80;1.30;;;22.00;99.90;;;;;;4896912;29;20581;-71
2021/08/09 11:24:00;;;;;;;1.40;1.40;;;22.10;99.90;;;;;;4896916;29;20546;-72
2021/08/09 11:26:28;;;;;;;3.23;2.00;;;22.10;99.90;;;;;;4897115;29;20514;-72
2021/08/09 11:28:59;;;;;;;1.43;1.33;;;22.00;99.90;;;;;;4908384;29;20569;-72
2021/08/09 11:31:27;;;;;;;2.70;1.57;;;22.00;99.90;;;;;;4914532;29;20475;-72
2021/08/09 11:33:55;;;;;;;2.50;1.33;;;22.00;99.90;;;;;;4915441;29;20470;-72
2021/08/09 11:36:22;;;;;;;2.20;1.60;;;22.10;99.90;;;;;;4915760;29;20525;-71
2021/08/09 11:38:50;;;;;;;1.43;1.30;;;22.10;99.90;;;;;;4915945;29;20478;-71
2021/08/09 11:41:18;;;;;;;2.10;1.40;;;21.90;99.90;;;;;;4916025;29;20490;-72
2021/08/09 11:43:46;;;;;;;1.50;1.40;;;22.00;99.90;;;;;;4914343;29;20471;-72
2021/08/09 11:46:15;;;;;;;2.43;1.63;;;22.00;99.90;;;;;;4915877;29;20490;-72
2021/08/09 11:48:43;;;;;;;2.13;1.60;;;21.80;99.90;;;;;;4915458;29;20466;-72
2021/08/09 11:51:13;;;;;;;1.53;1.43;;;21.60;99.90;;;;;;4915173;29;21008;-72
2021/08/09 11:53:41;;;;;;;1.83;1.57;;;21.40;99.90;;;;;;4915849;29;20473;-71
2021/08/09 11:56:09;;;;;;;2.47;1.67;;;21.40;99.90;;;;;;4910444;29;20464;-71
2021/08/09 11:58:37;;;;;;;1.73;1.63;;;21.50;99.90;;;;;;4897865;29;20880;-71
2021/08/09 12:01:04;;;;;;;2.40;1.73;;;21.60;99.90;;;;;;4903036;29;20500;-71
2021/08/09 12:03:30;;;;;;;1.40;1.40;;;21.50;99.90;;;;;;4900987;29;20495;-71
2021/08/09 12:06:18;;;;;;;1.70;1.60;;;21.50;99.90;;;;;;4902064;29;20491;-71
2021/08/09 12:08:52;;;;;;;3.53;1.83;;;21.40;99.90;;;;;;4915653;29;20556;-71
2021/08/09 12:11:22;;;;;;;4.60;1.80;;;21.40;99.90;;;;;;4915372;29;20506;-71
2021/08/09 12:14:02;;;;;;;2.47;1.87;;;21.40;99.90;;;;;;4896624;29;20575;-71
2021/08/09 12:16:28;;;;;;;1.77;1.67;;;21.40;99.90;;;;;;4899743;29;20602;-71
2021/08/09 12:18:57;;;;;;;2.13;1.50;;;21.40;99.90;;;;;;4914549;29;20471;-72
2021/08/09 12:21:33;;;;;;;1.60;1.40;;;21.50;99.90;;;;;;4915480;29;20482;-72
2021/08/09 12:24:01;;;;;;;1.43;1.33;;;21.60;99.90;;;;;;4913466;29;20561;-71
2021/08/09 12:26:31;;;;;;;2.00;1.60;;;21.70;99.90;;;;;;4907441;29;20610;-71
2021/08/09 12:28:59;;;;;;;3.30;1.60;;;21.80;99.90;;;;;;4914181;29;20473;-71
2021/08/09 12:31:30;;;;;;;2.20;1.70;;;21.80;99.90;;;;;;4903528;29;20577;-71
2021/08/09 12:34:01;;;;;;;2.60;1.63;;;21.80;99.90;;;;;;4914945;29;20791;-72
2021/08/09 12:36:28;;;;;;;2.23;2.03;;;21.60;99.90;;;;;;4905696;29;20538;-71
2021/08/09 12:38:54;;;;;;;2.47;2.33;;;21.60;99.90;;;;;;4915205;29;20493;-71
2021/08/09 12:41:27;;;;;;;3.03;1.53;;;21.60;99.90;;;;;;4905730;29;21014;-71
2021/08/09 12:43:54;;;;;;;2.00;2.00;;;21.80;99.90;;;;;;4906927;29;21067;-71
2021/08/09 12:46:21;;;;;;;2.87;2.67;;;21.90;99.90;;;;;;4904586;29;20490;-72
2021/08/09 12:48:48;;;;;;;1.70;1.60;;;22.20;99.90;;;;;;4895777;29;21019;-71
2021/08/09 12:51:15;;;;;;;2.10;2.00;;;22.30;99.90;;;;;;4904181;29;20549;-71
2021/08/09 12:53:42;;;;;;;2.90;2.70;;;22.40;99.90;;;;;;4899696;29;20543;-70
2021/08/09 12:56:09;;;;;;;3.40;2.00;;;22.60;99.90;;;;;;4899600;29;20866;-72
2021/08/09 12:58:38;;;;;;;2.00;1.90;;;22.70;99.90;;;;;;4897546;29;20460;-71
2021/08/09 13:01:05;;;;;;;1.47;1.47;;;22.60;99.90;;;;;;4897480;29;20518;-71
2021/08/09 13:03:31;;;;;;;3.00;1.80;;;22.50;99.90;;;;;;4894861;29;20490;-71
2021/08/09 13:06:00;;;;;;;1.70;1.70;;;22.40;99.90;;;;;;4913698;29;20898;-71
2021/08/09 13:08:29;;;;;;;2.00;1.90;;;22.40;99.90;;;;;;4914769;29;20474;-71
2021/08/09 13:10:56;;;;;;;2.23;2.03;;;22.30;99.90;;;;;;4897713;29;21102;-71
2021/08/09 13:13:22;;;;;;;3.17;1.93;;;22.30;99.90;;;;;;4903082;29;20590;-70
2021/08/09 13:15:51;;;;;;;2.27;2.17;;;22.10;99.90;;;;;;4907291;29;20462;-71
2021/08/09 13:18:17;;;;;;;4.73;2.67;;;22.00;99.90;;;;;;4915612;29;20474;-69
2021/08/09 13:20:44;;;;;;;3.53;1.90;;;22.10;99.90;;;;;;4899911;29;20487;-69
2021/08/09 13:23:11;;;;;;;1.77;1.67;;;22.20;99.90;;;;;;4914403;29;20474;-69
2021/08/09 13:25:37;;;;;;;2.13;1.90;;;22.20;99.90;;;;;;4918056;29;20580;-69
2021/08/09 13:28:05;;;;;;;1.60;1.50;;;22.10;99.90;;;;;;4904566;29;20519;-69
2021/08/09 13:30:31;;;;;;;2.27;2.03;;;22.10;99.90;;;;;;4912927;29;20486;-69
2021/08/09 13:32:59;;;;;;;1.77;1.77;;;22.30;99.90;;;;;;4917642;29;20466;-69
2021/08/09 13:35:26;;;;;;;1.57;1.57;;;22.30;99.90;;;;;;4917471;29;20518;-69
2021/08/09 13:37:52;;;;;;;2.27;1.50;;;22.30;99.90;;;;;;4918051;29;20909;-70
2021/08/09 13:40:19;;;;;;;3.00;2.57;;;22.50;99.90;;;;;;4918022;29;20966;-71
2021/08/09 13:42:46;;;;;;;2.10;1.90;;;22.70;99.90;;;;;;4918187;29;20505;-71
2021/08/09 13:45:12;;;;;;;4.20;2.13;;;22.90;99.90;;;;;;4917343;29;20525;-71
2021/08/09 13:47:39;;;;;;;2.23;2.03;;;23.10;99.90;;;;;;4898377;29;20483;-71
2021/08/09 13:50:08;;;;;;;2.03;1.93;;;23.30;99.90;;;;;;4899238;29;20484;-71
2021/08/09 13:52:34;;;;;;;1.60;1.57;;;23.40;99.90;;;;;;4898557;29;20471;-71
2021/08/09 13:55:01;;;;;;;2.00;1.90;;;23.30;99.90;;;;;;4899133;29;20538;-71
2021/08/09 13:57:28;;;;;;;3.60;1.30;;;23.20;99.90;;;;;;4899179;29;20475;-71
2021/08/09 13:59:54;;;;;;;1.50;1.50;;;23.10;99.90;;;;;;4898992;29;20610;-71
2021/08/09 14:02:21;;;;;;;1.53;1.37;;;23.10;99.90;;;;;;4902804;29;20574;-70
2021/08/09 14:04:47;;;;;;;1.70;1.70;;;23.10;99.90;;;;;;4917143;29;20471;-71
2021/08/09 14:07:15;;;;;;;1.97;1.80;;;23.40;99.90;;;;;;4917409;29;20602;-71
2021/08/09 14:09:42;;;;;;;1.47;1.47;;;23.30;99.90;;;;;;4917728;29;20522;-71
2021/08/09 14:12:09;;;;;;;1.60;1.60;;;23.10;99.90;;;;;;4917131;29;20510;-69
2021/08/09 14:14:35;;;;;;;1.77;1.60;;;22.90;99.90;;;;;;4903522;29;20499;-71
2021/08/09 14:17:03;;;;;;;1.50;1.40;;;22.80;99.90;;;;;;4902745;29;20946;-73
2021/08/09 14:19:29;;;;;;;4.70;2.60;;;22.80;99.90;;;;;;4915363;29;20459;-68
2021/08/09 14:21:56;;;;;;;4.07;2.40;;;22.80;99.90;;;;;;4912876;29;20495;-69
2021/08/09 14:24:26;;;;;;;2.57;1.80;;;22.70;99.90;;;;;;4904408;29;20530;-69
2021/08/09 14:26:52;;;;;;;2.70;2.50;;;22.70;99.90;;;;;;4910981;29;20499;-68
2021/08/09 14:29:19;;;;;;;2.77;1.93;;;22.60;99.90;;;;;;4901703;29;20522;-70
2021/08/09 14:31:46;;;;;;;2.20;2.10;;;22.40;99.90;;;;;;4913900;29;20597;-69
2021/08/09 14:34:12;;;;;;;1.57;1.47;;;22.20;99.90;;;;;;4908891;29;20526;-69
2021/08/09 14:36:40;;;;;;;6.00;1.90;;;22.00;99.90;;;;;;4903138;29;20466;-68
2021/08/09 14:39:07;;;;;;;1.60;1.60;;;21.90;99.90;;;;;;4914221;29;20466;-70
2021/08/09 14:41:34;;;;;;;1.50;1.50;;;21.90;99.90;;;;;;4910121;29;20274;-70
2021/08/09 14:44:01;;;;;;;2.10;1.90;;;21.80;99.90;;;;;;4900920;29;20475;-70
2021/08/09 14:46:28;;;;;;;1.40;1.30;;;21.80;99.90;;;;;;4908632;29;20495;-71
2021/08/09 14:48:54;;;;;;;2.93;1.60;;;21.80;99.90;;;;;;4909169;29;20472;-71
2021/08/09 14:51:21;;;;;;;1.17;1.10;;;21.90;99.90;;;;;;4913638;29;20490;-70
2021/08/09 14:53:48;;;;;;;1.47;1.47;;;21.90;99.90;;;;;;4914225;29;20467;-71
2021/08/09 14:56:14;;;;;;;1.37;1.37;;;21.90;99.90;;;;;;4907226;29;20526;-70
2021/08/09 14:58:42;;;;;;;1.50;1.47;;;21.80;99.90;;;;;;4911104;29;20470;-70
2021/08/09 15:01:09;;;;;;;1.43;1.43;;;21.80;99.90;;;;;;4906775;29;20495;-70
2021/08/09 15:03:35;;;;;;;2.00;1.90;;;21.70;99.90;;;;;;4909591;29;20568;-70
2021/08/09 15:06:02;;;;;;;1.30;1.23;;;21.80;99.90;;;;;;4915683;29;20519;-70
2021/08/09 15:08:29;;;;;;;3.03;2.00;;;21.90;99.90;;;;;;4909706;29;20478;-70
2021/08/09 15:10:55;;;;;;;1.50;1.40;;;22.20;99.90;;;;;;4915790;29;20490;-71
2021/08/09 15:13:22;;;;;;;1.47;1.37;;;22.30;99.90;;;;;;4915171;29;20467;-70
2021/08/09 15:15:50;;;;;;;2.93;1.60;;;22.30;99.90;;;;;;4914692;29;20467;-71
2021/08/09 15:18:16;;;;;;;1.60;1.60;;;22.20;99.90;;;;;;4904913;29;20871;-72
2021/08/09 15:20:43;;;;;;;1.33;1.30;;;22.10;99.90;;;;;;4901207;29;20530;-70
2021/08/09 15:23:10;;;;;;;1.60;1.50;;;22.00;99.90;;;;;;4911369;29;20466;-70
2021/08/09 15:25:38;;;;;;;2.27;1.93;;;21.90;99.90;;;;;;4915072;29;20465;-70
2021/08/09 15:28:05;;;;;;;1.70;1.40;;;21.90;99.90;;;;;;4909502;29;20474;-70
2021/08/09 15:30:32;;;;;;;2.10;2.00;;;21.70;99.90;;;;;;4913769;29;20490;-70
2021/08/09 15:33:01;;;;;;;2.00;1.90;;;21.60;99.90;;;;;;4908162;29;20479;-69
2021/08/09 15:35:28;;;;;;;2.73;1.70;;;21.50;99.90;;;;;;4901083;29;20581;-69
2021/08/09 15:37:55;;;;;;;1.60;1.60;;;21.50;99.90;;;;;;4903047;29;20463;-70
2021/08/09 15:40:22;;;;;;;1.87;1.77;;;21.30;99.90;;;;;;4910804;29;20478;-70
2021/08/09 15:42:49;;;;;;;3.60;2.90;;;21.40;99.90;;;;;;4906665;29;20474;-69
2021/08/09 15:45:15;;;;;;;1.80;1.70;;;21.30;99.90;;;;;;4911816;29;20479;-69
2021/08/09 15:47:43;;;;;;;2.00;2.00;;;21.30;99.90;;;;;;4909243;29;20502;-69
2021/08/09 15:50:13;;;;;;;2.10;2.00;;;21.40;99.90;;;;;;4908325;29;20470;-70
2021/08/09 15:52:42;;;;;;;1.87;1.77;;;21.40;99.90;;;;;;4903982;29;20476;-70
2021/08/09 15:55:09;;;;;;;1.90;1.80;;;21.40;99.90;;;;;;4909838;29;20475;-70
2021/08/09 15:57:36;;;;;;;2.20;2.00;;;21.30;99.90;;;;;;4909225;29;20502;-69
2021/08/09 16:00:03;;;;;;;2.50;2.20;;;21.30;99.90;;;;;;4908918;29;20462;-69
2021/08/09 16:02:30;;;;;;;1.97;1.73;;;21.30;99.90;;;;;;4907425;29;20498;-69
2021/08/09 16:04:57;;;;;;;1.47;1.33;;;21.30;99.90;;;;;;4903730;29;20491;-69
2021/08/09 16:07:25;;;;;;;1.77;1.77;;;21.40;99.90;;;;;;4896710;29;20550;-69
2021/08/09 16:09:51;;;;;;;1.70;1.70;;;21.50;99.90;;;;;;4907284;29;21579;-69
2021/08/09 16:12:18;;;;;;;1.63;1.63;;;21.60;99.90;;;;;;4913048;29;20499;-69
2021/08/09 16:14:45;;;;;;;3.13;2.00;;;21.50;99.90;;;;;;4913097;29;20462;-69
2021/08/09 16:17:11;;;;;;;2.20;2.00;;;21.50;99.90;;;;;;4904444;29;20474;-72
2021/08/09 16:19:38;;;;;;;1.37;1.37;;;21.50;99.90;;;;;;4910382;29;20462;-69
2021/08/09 16:22:05;;;;;;;2.00;1.90;;;21.50;99.90;;;;;;4906633;29;20497;-70
2021/08/09 16:24:33;;;;;;;3.10;2.30;;;21.60;99.90;;;;;;4908025;29;20467;-70
2021/08/09 16:27:00;;;;;;;1.80;1.70;;;21.50;99.90;;;;;;4905046;29;20491;-71
2021/08/09 16:29:27;;;;;;;1.50;1.47;;;21.50;99.90;;;;;;4901879;29;20503;-70
2021/08/09 16:31:53;;;;;;;2.20;2.13;;;21.40;99.90;;;;;;4913926;29;21006;-69
2021/08/09 16:34:20;;;;;;;2.47;2.10;;;21.40;99.90;;;;;;4897991;29;20952;-69
2021/08/09 16:36:47;;;;;;;2.00;1.90;;;21.40;99.90;;;;;;4902243;29;20467;-70
2021/08/09 16:39:14;;;;;;;1.30;1.30;;;21.50;99.90;;;;;;4906456;29;20470;-70
2021/08/09 16:41:42;;;;;;;1.60;1.50;;;21.40;99.90;;;;;;4911773;29;20486;-70
2021/08/09 16:44:08;;;;;;;1.87;1.77;;;21.30;99.90;;;;;;4902859;29;20554;-70
2021/08/09 16:46:35;;;;;;;1.70;1.70;;;21.20;99.90;;;;;;4907624;29;20493;-71
2021/08/09 16:49:02;;;;;;;1.37;1.37;;;21.20;99.90;;;;;;4905503;29;20515;-69
2021/08/09 16:51:28;;;;;;;1.60;1.60;;;21.10;99.90;;;;;;4912105;29;20490;-70
2021/08/09 16:53:55;;;;;;;1.27;1.27;;;21.20;99.90;;;;;;4910906;29;20471;-70
2021/08/09 16:56:21;;;;;;;1.40;1.30;;;21.20;99.90;;;;;;4913626;29;20836;-71